Tiempo atmosférico en la estación meteorológica de Palma, Puerto, Illes Balears (3 m.)



Fecha
DESCASC
Temp. máxima en grados centígrados (hora)
DESCASC
Temp. mínima en grados centígrados (hora)
DESCASC
Temp. media en grados centígrados
DESCASC
Racha de viento máxima en m/sg (hora)
DESCASC
Velocidad máxima media en intervalos de 10 minutos(hora)
DESCASC
Precipitaciones diarias en mm
DESCASC
Precipitaciones de 00:00 a 06:00 en mm
DESCASC
Precipitaciones de 06:00 a 12:00 en mm
DESCASC
Precipitaciones de 12:00 a 18:00 en mm
DESCASC
Precipitaciones de 18:00 a 24:00 en mm
DESCASC
22-04-2019 17.5 (14:00) 13.9 (01:00) 15.7 14.72 (01:30) 7.5 (01:30) 0.2 0.1 0.1 0 0
21-04-2019 16.6 (16:00) 13.9 (23:40) 15.3 12.78 (16:40) 6.94 (16:10) 0.1 0 0 0 0.1
20-04-2019 18.8 (14:40) 15.9 (23:59) 17.3 17.22 (11:10) 9.72 (11:00) 0.3 0 0.3 0 0
19-04-2019 17.4 (16:10) 14.9 (04:00) 16.1 14.17 (14:20) 8.61 (16:40) 0 0 0 0 0
18-04-2019 21.3 (13:00) 15.2 (00:00) 18.2 12.5 (19:40) 7.5 (16:00) 0 0 0 0 0
17-04-2019 21 (17:20) 12.6 (00:00) 16.8 7.5 (23:30) 5 (21:50) 0 0 0 0 0
16-04-2019 20 (16:10) 13 (00:00) 16.5 7.22 (07:20) 3.61 (07:20) 0.5 0.3 0.2 0 0
15-04-2019 20.4 (11:50) 12.9 (00:00) 16.6 7.22 (14:10) 4.17 (14:10) 0 0 0 0 0
14-04-2019 22.3 (13:30) 10.3 (00:00) 16.3 7.22 (12:20) 3.33 (11:30) 0 0 0 0 0
13-04-2019 18.9 (16:10) 9.9 (00:00) 14.4 8.89 (14:00) 5 (13:50) 0 0 0 0 0
12-04-2019 19.2 (13:10) 12.7 (00:00) 16 7.5 (14:30) 4.44 (14:20) 0 0 0 0 0
11-04-2019 20.5 (14:10) 11.6 (00:00) 16.1 7.78 (17:20) 3.89 (17:30) 0 0 0 0 0
10-04-2019 19.8 (14:50) 11.2 (00:00) 15.5 9.17 (06:00) 3.61 (06:00) 2 0 2 0 0
09-04-2019 19.5 (15:40) 13 (00:00) 16.3 10 (12:00) 4.44 (12:40) 0.1 0 0.1 0 0
08-04-2019 19.5 (13:50) 9 (00:00) 14.3 8.61 (14:10) 3.89 (15:50) 0 0 0 0 0
07-04-2019 17 (15:10) 9.5 (00:00) 13.3 9.17 (14:00) 3.89 (16:00) 7.2 0 7.2 0 0
06-04-2019 16.4 (13:00) 9.6 (00:00) 13 13.06 (17:00) 4.72 (14:10) 3.1 3.1 0 0 0
05-04-2019 17 (12:50) 7.3 (00:00) 12.2 10.56 (20:20) 6.11 (16:40) 4.1 0 0 1.8 2.3
04-04-2019 16.4 (16:50) 10.1 (00:00) 13.3 12.22 (11:20) 5.83 (00:40) 0 0 0 0 0
03-04-2019 18.2 (15:00) 12.8 (00:00) 15.5 11.11 (23:20) 5.28 (23:20) 0 0 0 0 0
02-04-2019 17.6 (14:20) 9.9 (00:00) 13.8 7.5 (14:50) 3.89 (17:10) 0 0 0 0 0
01-04-2019 18.9 (15:00) 13.5 (00:00) 16.2 6.39 (18:20) 4.17 (18:30) 0.3 0.3 0 0 0
31-03-2019 18.4 (12:40) 12.3 (00:00) 15.3 7.5 (20:20) 5 (17:50) 1.1 0 0 0.6 0.5
30-03-2019 18.7 (12:10) 10.9 (00:00) 14.8 8.06 (10:10) 3.61 (13:30) 0 0 0 0 0
29-03-2019 19 (12:40) 8.2 (00:00) 13.6 7.5 (13:30) 4.72 (13:50) 0 0 0 0 0
28-03-2019 20 (13:10) 8.5 (00:00) 14.3 8.89 (14:10) 4.44 (12:00) 0 0 0 0 0
27-03-2019 19.6 (13:50) 9.3 (00:00) 14.5 9.44 (06:40) 4.72 (06:10) 0 0 0 0 0
26-03-2019 17.1 (10:40) 9.2 (00:00) 13.2 13.61 (11:40) 6.67 (12:10) 0 0 0 0 0
25-03-2019 22.4 (12:40) 9.1 (00:00) 15.8 7.22 (13:10) 3.89 (13:10) 0 0 0 0 0

Gráficas

Temp. máximas Temp. mínimas Temp. medias Precipitaciones Rachas de viento máximas Velocidades máximas media en intervalos de 10 minutos

Datos horarios

Fecha y hora oficial Temperatura (ºC) Velocidad del viento (km/h) Dirección del viento Racha (km/h) Dirección de racha Precipitación (mm) Presión (hPa) Tendencia (hPa) Humedad (%)
2019-04-23 23:00:00 16.3 15 Sur 28 Sur 0 -- -- 82
2019-04-23 22:00:00 16.3 12 Sudoeste 33 Sudoeste 0 -- -- 81
2019-04-23 21:00:00 16.4 9 Sudoeste 22 Sudoeste 0 -- -- 80
2019-04-23 20:00:00 17 7 Sudoeste 32 Sudoeste 0 -- -- 75
2019-04-23 19:00:00 17 13 Sur 30 Sudoeste 0 -- -- 79
2019-04-23 18:00:00 17.5 12 Sur 31 Sur 0 -- -- 77
2019-04-23 17:00:00 17.8 14 Sur 32 Sur 0 -- -- 75
2019-04-23 16:00:00 18 14 Sur 26 Sur 0 -- -- 79
2019-04-23 15:00:00 17.5 14 Sur 23 Sur 0 -- -- 80
2019-04-23 14:00:00 18.3 11 Sur 22 Sudoeste 0 -- -- 77
2019-04-23 13:00:00 18.1 10 Sur 22 Sudoeste 0 -- -- 76
2019-04-23 12:00:00 17.4 11 Sur 17 Sur 0 -- -- 79
2019-04-23 11:00:00 17.2 10 Sur 23 Sur 0 -- -- 76
2019-04-23 10:00:00 16.7 11 Sur 23 Sur 0 -- -- 74
2019-04-23 09:00:00 16.1 6 Sudoeste 14 Sudoeste 0 -- -- 74
2019-04-23 08:00:00 14.7 0 Calma 9 Sudoeste 0 -- -- 79
2019-04-23 07:00:00 14.5 4 Sur 9 Sudoeste 0 -- -- 80
2019-04-23 06:00:00 14.6 5 Sudoeste 15 Oeste 0 -- -- 79
2019-04-23 05:00:00 14.7 0 Calma 11 Sudeste 0 -- -- 77
2019-04-23 04:00:00 14.8 7 Norte 21 Noroeste 0 -- -- 79
2019-04-23 03:00:00 14.9 7 Noroeste 28 Noroeste 0.1 -- -- 86
2019-04-23 02:00:00 15.2 12 Noroeste 24 Norte 0 -- -- 82
2019-04-23 01:00:00 15.9 7 Noroeste 21 Norte 0 -- -- 79
2019-04-23 00:00:00 16.3 13 Noroeste 28 Noroeste 0 -- -- 79
2019-04-22 23:00:00 16.5 7 Noroeste 24 Oeste 0 -- -- 78
2019-04-22 22:00:00 16.4 11 Noroeste 22 Noroeste 0 -- -- 77
2019-04-22 21:00:00 16.4 3 Noroeste 17 Oeste 0 -- -- 77
2019-04-22 20:00:00 16.4 7 Norte 25 Norte 0 -- -- 77
2019-04-22 19:00:00 17.2 10 Norte 25 Norte 0 -- -- 73
2019-04-22 18:00:00 16.4 5 Sudoeste 14 Oeste 0 -- -- 83
2019-04-22 17:00:00 17.2 3 Noroeste 9 Nordeste 0 -- -- 75
2019-04-22 16:00:00 16.8 5 Noroeste 10 Noroeste 0 -- -- 77
2019-04-22 15:00:00 17 5 Nordeste 25 Nordeste 0 -- -- 77
2019-04-22 14:00:00 17.3 12 Nordeste 27 Nordeste 0 -- -- 74
2019-04-22 13:00:00 17 14 Nordeste 27 Norte 0 -- -- 77
2019-04-22 12:00:00 16.1 12 Nordeste 22 Nordeste 0 -- -- 83
2019-04-22 11:00:00 15.3 15 Nordeste 24 Nordeste 0 -- -- 90
2019-04-22 10:00:00 15 11 Nordeste 24 Nordeste 0 -- -- 90
2019-04-22 09:00:00 15.1 15 Nordeste 33 Nordeste 0 -- -- 89
2019-04-22 08:00:00 15.1 17 Nordeste 32 Norte 0.1 -- -- 85
2019-04-22 07:00:00 15 19 Nordeste 33 Nordeste 0 -- -- 84
2019-04-22 06:00:00 15.4 15 Nordeste 31 Nordeste 0 -- -- 79
2019-04-22 05:00:00 15.1 18 Nordeste 37 Norte 0 -- -- 81
2019-04-22 04:00:00 15.5 17 Nordeste 36 Nordeste 0 -- -- 75
2019-04-22 03:00:00 14.9 21 Nordeste 44 Este 0 -- -- 78
2019-04-22 02:00:00 15.3 22 Nordeste 53 Nordeste 0.1 -- -- 74
2019-04-22 01:00:00 14.1 21 Nordeste 33 Norte 0 -- -- 87
2019-04-22 00:00:00 14.1 15 Nordeste 41 Nordeste 0.1 -- -- 87
2019-04-21 23:00:00 15.6 20 Nordeste 40 Nordeste 0 -- -- 69
2019-04-21 22:00:00 14.4 18 Nordeste 38 Nordeste 0 -- -- 85
2019-04-21 21:00:00 14.8 19 Nordeste 39 Nordeste 0 -- -- 81
2019-04-21 20:00:00 14.9 20 Nordeste 39 Nordeste 0 -- -- 87
2019-04-21 19:00:00 15.2 18 Nordeste 42 Este 0 -- -- 85
2019-04-21 18:00:00 15.6 20 Nordeste 39 Nordeste 0 -- -- 83
2019-04-21 17:00:00 16.1 21 Nordeste 46 Nordeste 0 -- -- 79
2019-04-21 16:00:00 16.5 18 Nordeste 39 Nordeste 0 -- -- 77
2019-04-21 15:00:00 16 18 Nordeste 41 Nordeste 0 -- -- 80
2019-04-21 14:00:00 15.7 15 Nordeste 43 Este 0 -- -- 82
2019-04-21 13:00:00 15.6 17 Nordeste 35 Nordeste 0 -- -- 82
2019-04-21 12:00:00 -- 16 Nordeste 32 Nordeste 0 -- -- --
2019-04-21 11:00:00 15 18 Nordeste 32 Nordeste 0 -- -- 83
2019-04-21 10:00:00 15.2 16 Nordeste 33 Nordeste 0 -- -- 78
2019-04-21 09:00:00 15.3 17 Nordeste 38 Este 0 -- -- 77
2019-04-21 08:00:00 15.1 14 Nordeste 35 Nordeste 0 -- -- 78
2019-04-21 07:00:00 14.7 15 Nordeste 31 Nordeste 0 -- -- 80
2019-04-21 06:00:00 15 14 Nordeste 31 Nordeste 0 -- -- 79
2019-04-21 05:00:00 14.7 15 Nordeste 29 Nordeste 0 -- -- 80
2019-04-21 04:00:00 14.5 13 Nordeste 28 Nordeste 0 -- -- 83
2019-04-21 03:00:00 14.9 15 Nordeste 32 Nordeste 0 -- -- 78
2019-04-21 02:00:00 15 21 Nordeste 35 Este 0 -- -- 76
2019-04-21 01:00:00 15.6 15 Nordeste 37 Nordeste 0 -- -- 67
2019-04-21 00:00:00 15.9 15 Nordeste 35 Nordeste 0 -- -- 69
2019-04-20 23:00:00 16.3 15 Nordeste 40 Nordeste 0 -- -- 65
2019-04-20 22:00:00 16.5 19 Nordeste 37 Nordeste 0 -- -- 63
2019-04-20 21:00:00 16.6 16 Nordeste 42 Este 0 -- -- 59
2019-04-20 20:00:00 17.4 21 Este 42 Este 0 -- -- 50
2019-04-20 19:00:00 17.3 23 Nordeste 48 Este 0 -- -- 51
2019-04-20 18:00:00 17.7 27 Este 51 Este 0 -- -- 50
2019-04-20 17:00:00 18 24 Este 50 Nordeste 0 -- -- 50
2019-04-20 16:00:00 18.1 28 Este 54 Este 0 -- -- 50
2019-04-20 15:00:00 18.3 30 Este 57 Nordeste 0 -- -- 50
2019-04-20 14:00:00 18.4 27 Nordeste 59 Nordeste 0 -- -- 49
2019-04-20 13:00:00 18.4 27 Nordeste 60 Nordeste 0 -- -- 49
2019-04-20 12:00:00 17.7 26 Nordeste 62 Nordeste 0.1 -- -- 50
2019-04-20 11:00:00 16.9 35 Nordeste 61 Este 0.2 -- -- 53
2019-04-20 10:00:00 17.2 26 Nordeste 56 Nordeste 0 -- -- 50
2019-04-20 09:00:00 17 26 Nordeste 49 Nordeste 0 -- -- 49
2019-04-20 08:00:00 16.8 21 Nordeste 45 Norte 0 -- -- 51
2019-04-20 07:00:00 16.8 19 Nordeste 46 Nordeste 0 -- -- 52
2019-04-20 06:00:00 16.9 24 Nordeste 51 Nordeste 0 -- -- 52
2019-04-20 05:00:00 17 28 Nordeste 60 Nordeste 0 -- -- 53
2019-04-20 04:00:00 17 29 Nordeste 56 Nordeste 0 -- -- 53
2019-04-20 03:00:00 17 24 Nordeste 52 Este 0 -- -- 55
2019-04-20 02:00:00 17.1 24 Nordeste 53 Nordeste 0 -- -- 56
2019-04-20 01:00:00 17.4 22 Nordeste 50 Este 0 -- -- 55
2019-04-20 00:00:00 17.3 21 Nordeste 41 Este 0 -- -- 58
2019-04-19 23:00:00 17.1 18 Nordeste 39 Nordeste 0 -- -- 62
2019-04-19 22:00:00 17 22 Nordeste 48 Nordeste 0 -- -- 66
2019-04-19 21:00:00 17 19 Nordeste 49 Nordeste 0 -- -- 70
2019-04-19 20:00:00 16.9 24 Nordeste 41 Nordeste 0 -- -- 72
2019-04-19 19:00:00 17.1 22 Nordeste 41 Nordeste 0 -- -- 71
2019-04-19 18:00:00 17.1 23 Nordeste 44 Este 0 -- -- 71
2019-04-19 17:00:00 17.2 22 Nordeste 49 Nordeste 0 -- -- 70
2019-04-19 16:00:00 17.2 21 Nordeste 44 Nordeste 0 -- -- 70
2019-04-19 15:00:00 16.8 25 Nordeste 51 Nordeste 0 -- -- 72
2019-04-19 14:00:00 16.7 27 Nordeste 50 Nordeste 0 -- -- 73
2019-04-19 13:00:00 16.4 24 Nordeste 44 Nordeste 0 -- -- 74
2019-04-19 12:00:00 16.3 21 Nordeste 42 Nordeste 0 -- -- 76
2019-04-19 11:00:00 15.7 20 Nordeste 34 Nordeste 0 -- -- 83
2019-04-19 10:00:00 15.6 15 Nordeste 40 Nordeste 0 -- -- 84
2019-04-19 09:00:00 15.8 22 Nordeste 39 Nordeste 0 -- -- 82
2019-04-19 08:00:00 15.3 15 Nordeste 29 Nordeste 0 -- -- 86
2019-04-19 07:00:00 15.4 14 Nordeste 28 Nordeste 0 -- -- 87
2019-04-19 06:00:00 15.2 12 Nordeste 28 Nordeste 0 -- -- 88
2019-04-19 05:00:00 15.3 14 Nordeste 30 Nordeste 0 -- -- 89
2019-04-19 04:00:00 14.9 13 Nordeste 28 Este 0 -- -- 91
2019-04-19 03:00:00 15.7 14 Este 26 Nordeste 0 -- -- 85
2019-04-19 02:00:00 16.2 13 Este 28 Nordeste 0 -- -- 78
2019-04-19 01:00:00 16.4 17 Nordeste 34 Nordeste 0 -- -- 75
2019-04-19 00:00:00 16.6 17 Nordeste 32 Nordeste 0 -- -- 74
2019-04-18 23:00:00 16.5 15 Este 32 Nordeste 0 -- -- 73
2019-04-18 22:00:00 16.5 16 Este 33 Nordeste 0 -- -- 72
2019-04-18 21:00:00 16.7 17 Este 41 Nordeste 0 -- -- 70
2019-04-18 20:00:00 17.1 23 Nordeste 45 Nordeste 0 -- -- 69
2019-04-18 19:00:00 17.4 19 Este 39 Este 0 -- -- 68
2019-04-18 18:00:00 18.7 20 Este 45 Este 0 -- -- 65
2019-04-18 17:00:00 19.2 23 Nordeste 44 Nordeste 0 -- -- 64
2019-04-18 16:00:00 19.1 27 Nordeste 44 Nordeste 0 -- -- 64
2019-04-18 15:00:00 20 22 Este 42 Este 0 -- -- 61
2019-04-18 14:00:00 20.8 19 Este 44 Nordeste 0 -- -- 57
2019-04-18 13:00:00 20.8 20 Este 45 Nordeste 0 -- -- 58
2019-04-18 12:00:00 18.7 26 Nordeste 42 Nordeste 0 -- -- 64
2019-04-18 11:00:00 17.8 17 Nordeste 41 Norte 0 -- -- 67
2019-04-18 10:00:00 17.2 18 Nordeste 34 Norte 0 -- -- 67
2019-04-18 09:00:00 16.1 19 Nordeste 39 Nordeste 0 -- -- 69
2019-04-18 08:00:00 15.7 17 Nordeste 33 Nordeste 0 -- -- 73
2019-04-18 07:00:00 15.8 12 Nordeste 39 Norte 0 -- -- 69
2019-04-18 06:00:00 15.9 16 Nordeste 34 Nordeste 0 -- -- 62
2019-04-18 05:00:00 16 14 Nordeste 35 Nordeste 0 -- -- 60
2019-04-18 04:00:00 15.7 18 Nordeste 30 Nordeste 0 -- -- 67
2019-04-18 03:00:00 15.5 13 Nordeste 32 Nordeste 0 -- -- 68
2019-04-18 02:00:00 16.1 14 Nordeste 28 Nordeste 0 -- -- 58
2019-04-18 01:00:00 15.9 12 Nordeste 25 Nordeste 0 -- -- 61
2019-04-18 00:00:00 15.7 13 Nordeste 27 Este 0 -- -- 67
2019-04-17 23:00:00 15.3 12 Nordeste 23 Nordeste 0 -- -- 73
2019-04-17 22:00:00 15.6 16 Nordeste 26 Nordeste 0 -- -- 74
2019-04-17 21:00:00 15.8 14 Este 26 Este 0 -- -- 70
2019-04-17 20:00:00 17.1 13 Este 25 Este 0 -- -- 65
2019-04-17 19:00:00 18.8 13 Este 23 Este 0 -- -- 58
2019-04-17 18:00:00 19.4 11 Sudeste 21 Sudeste 0 -- -- 60
2019-04-17 17:00:00 20.4 6 Sudoeste 15 Oeste 0 -- -- 59
2019-04-17 16:00:00 18.9 9 Sudoeste 20 Sudoeste 0 -- -- 65
2019-04-17 15:00:00 18.4 11 Sudoeste 23 Sudoeste 0 -- -- 68
2019-04-17 14:00:00 17.7 12 Sur 22 Sudoeste 0 -- -- 69
2019-04-17 13:00:00 18 12 Sudoeste 21 Sur 0 -- -- 67
2019-04-17 12:00:00 18.8 4 Sudeste 14 Nordeste 0 -- -- 60
2019-04-17 11:00:00 17.8 5 Nordeste 17 Este 0 -- -- 64
2019-04-17 10:00:00 16.8 6 Este 14 Nordeste 0 -- -- 70
2019-04-17 09:00:00 14.6 7 Nordeste 10 Nordeste 0 -- -- 74
2019-04-17 08:00:00 13 3 Nordeste 9 Norte 0 -- -- 81
2019-04-17 07:00:00 12.9 4 Norte 10 Norte 0 -- -- 82
2019-04-17 06:00:00 13 4 Norte 10 Noroeste 0 -- -- 81
2019-04-17 05:00:00 12.9 4 Norte 10 Noroeste 0 -- -- 79
2019-04-17 04:00:00 12.9 3 Norte 8 Norte 0 -- -- 77
2019-04-17 03:00:00 13.1 3 Norte 9 Oeste 0 -- -- 75
2019-04-17 02:00:00 13.9 4 Nordeste 9 Este 0 -- -- 74
2019-04-17 01:00:00 14.8 4 Norte 8 Norte 0 -- -- 67
2019-04-17 00:00:00 14.9 4 Norte 15 Nordeste 0 -- -- 63
2019-04-16 23:00:00 15.4 9 Nordeste 24 Nordeste 0 -- -- 68
2019-04-16 22:00:00 15.6 9 Nordeste 21 Nordeste 0 -- -- 68
2019-04-16 21:00:00 15.9 10 Este 21 Este 0 -- -- 65
2019-04-16 20:00:00 17.3 10 Este 19 Este 0 -- -- 63
2019-04-16 19:00:00 17.5 5 Sudeste 13 Sudeste 0 -- -- 68
2019-04-16 18:00:00 18.7 5 Sudeste 18 Sur 0 -- -- 55
2019-04-16 17:00:00 19.6 10 Sur 19 Sur 0 -- -- 44
2019-04-16 16:00:00 19.7 12 Sur 21 Sur 0 -- -- 47
2019-04-16 15:00:00 18.3 8 Sur 22 Sudoeste 0 -- -- 64
2019-04-16 14:00:00 17.7 12 Sur 24 Sur 0 -- -- 64
2019-04-16 13:00:00 18 11 Sur 21 Sur 0 -- -- 56
2019-04-16 12:00:00 17.5 12 Sur 21 Sudoeste 0 -- -- 64
2019-04-16 11:00:00 17.5 7 Sudoeste 14 Sudoeste 0.1 -- -- 64
2019-04-16 10:00:00 17.5 6 Este 13 Este 0 -- -- 64
2019-04-16 09:00:00 16.1 4 Norte 11 Norte 0 -- -- 64
2019-04-16 08:00:00 13.6 8 Noroeste 26 Noroeste 0 -- -- 72
2019-04-16 07:00:00 13.8 9 Nordeste 15 Nordeste 0.1 -- -- 77
2019-04-16 06:00:00 13.5 8 Noroeste 15 Nordeste 0.1 -- -- 65
2019-04-16 05:00:00 13.4 6 Norte 12 Noroeste 0.2 -- -- 60
2019-04-16 04:00:00 14.1 5 Nordeste 13 Nordeste 0 -- -- 57
2019-04-16 03:00:00 13.9 6 Norte 14 Noroeste 0 -- -- 60
2019-04-16 02:00:00 13.6 4 Norte 11 Nordeste 0 -- -- 58
2019-04-16 01:00:00 13.6 4 Norte 14 Nordeste 0 -- -- 57
2019-04-16 00:00:00 14.9 9 Nordeste 18 Este 0 -- -- 57
2019-04-15 23:00:00 15.1 10 Nordeste 18 Nordeste 0 -- -- 52
2019-04-15 22:00:00 15.9 9 Nordeste 20 Nordeste 0 -- -- 43
2019-04-15 21:00:00 16.6 8 Este 16 Este 0 -- -- 43
2019-04-15 20:00:00 17.5 6 Sudeste 18 Sudeste 0 -- -- 42
2019-04-15 19:00:00 18.7 6 Sudeste 16 Sudeste 0 -- -- 44
2019-04-15 18:00:00 18 8 Sur 16 Sur 0 -- -- 49
2019-04-15 17:00:00 18.8 6 Sur 17 Sur 0 -- -- 48
2019-04-15 16:00:00 18.8 9 Sur 17 Sur 0 -- -- 49
2019-04-15 15:00:00 18.6 11 Sur 26 Sur 0 -- -- 48
2019-04-15 14:00:00 18.2 14 Sur 25 Sur 0 -- -- 54
2019-04-15 13:00:00 18 12 Sur 22 Sur 0 -- -- 55
2019-04-15 12:00:00 19.2 8 Sur 20 Sur 0 -- -- 47
2019-04-15 11:00:00 19 6 Nordeste 14 Nordeste 0 -- -- 47
2019-04-15 10:00:00 17.2 8 Nordeste 21 Este 0 -- -- 50
2019-04-15 09:00:00 15.4 7 Nordeste 10 Nordeste 0 -- -- 51
2019-04-15 08:00:00 13.5 4 Norte 9 Nordeste 0 -- -- 58
2019-04-15 07:00:00 13.3 4 Norte 10 Norte 0 -- -- 58
2019-04-15 06:00:00 13.9 5 Norte 10 Noroeste 0 -- -- 53
2019-04-15 05:00:00 14.1 6 Norte 11 Noroeste 0 -- -- 53
2019-04-15 04:00:00 14.4 5 Norte 11 Norte 0 -- -- 58
2019-04-15 03:00:00 14.4 5 Norte 17 Nordeste 0 -- -- 63
2019-04-15 02:00:00 15.3 9 Nordeste 18 Nordeste 0 -- -- 67
2019-04-15 01:00:00 14.8 3 Norte 10 Noroeste 0 -- -- 75
2019-04-15 00:00:00 15.4 5 Norte 10 Norte 0 -- -- 73
2019-04-14 23:00:00 15.8 2 Norte 6 Noroeste 0 -- -- 74
2019-04-14 22:00:00 16.1 2 Este 11 Sudeste 0 -- -- 76
2019-04-14 21:00:00 16.5 5 Sudeste 19 Este 0 -- -- 77
2019-04-14 20:00:00 17.9 7 Nordeste 20 Sudoeste 0 -- -- 57
2019-04-14 19:00:00 19.7 10 Sudoeste 21 Sudoeste 0 -- -- 47
2019-04-14 18:00:00 20.5 9 Sudoeste 22 Sudoeste 0 -- -- 52
2019-04-14 17:00:00 19.9 9 Sudoeste 21 Sudoeste 0 -- -- 59
2019-04-14 16:00:00 20.4 6 Este 16 Sudeste 0 -- -- 55
2019-04-14 15:00:00 21.2 8 Sur 22 Sudoeste 0 -- -- 49
2019-04-14 14:00:00 21 9 Sudoeste 24 Sudoeste 0 -- -- 50
2019-04-14 13:00:00 21.3 8 Sudoeste 26 Sudoeste 0 -- -- 47
2019-04-14 12:00:00 19.8 7 Sudoeste 23 Sudoeste 0 -- -- 57
2019-04-14 11:00:00 17.1 11 Sur 21 Sur 0 -- -- 77
2019-04-14 10:00:00 15.7 7 Sur 12 Sur 0 -- -- 77
2019-04-14 09:00:00 12.9 3 Nordeste 4 Nordeste 0 -- -- 77
2019-04-14 08:00:00 10.9 0 Calma 6 Norte 0 -- -- 88
2019-04-14 07:00:00 10.4 0 Calma 6 Noroeste 0 -- -- 88
2019-04-14 06:00:00 10.5 0 Calma 6 Norte 0 -- -- 85
2019-04-14 05:00:00 11 2 Norte 7 Norte 0 -- -- 83
2019-04-14 04:00:00 11.6 4 Norte 8 Norte 0 -- -- 83
2019-04-14 03:00:00 12.5 3 Norte 12 Sudoeste 0 -- -- 86
2019-04-14 02:00:00 14.6 3 Sudoeste 16 Oeste 0 -- -- 84
2019-04-14 01:00:00 14.8 6 Sudoeste 15 Sudoeste 0 -- -- 84
2019-04-14 00:00:00 14.5 0 Calma 11 Oeste 0 -- -- 84
2019-04-13 23:00:00 14.5 0 Calma 8 Sur 0 -- -- 83
2019-04-13 22:00:00 15.1 5 Sudoeste 15 Sudoeste 0 -- -- 82
2019-04-13 21:00:00 15.5 9 Sudoeste 17 Sur 0 -- -- 77
2019-04-13 20:00:00 16.1 8 Sudoeste 23 Sudoeste 0 -- -- 74
2019-04-13 19:00:00 16.7 11 Sudoeste 25 Sudoeste 0 -- -- 67
2019-04-13 18:00:00 17.5 10 Sudoeste 26 Oeste 0 -- -- 57
2019-04-13 17:00:00 18.1 12 Sudoeste 24 Sudoeste 0 -- -- 55
2019-04-13 16:00:00 18.7 12 Sudoeste 26 Sudoeste 0 -- -- 57
2019-04-13 15:00:00 18.7 11 Sudoeste 30 Sudoeste 0 -- -- 62
2019-04-13 14:00:00 17.6 16 Sur 32 Sur 0 -- -- 65
2019-04-13 13:00:00 17 17 Sur 29 Sur 0 -- -- 72
2019-04-13 12:00:00 16.6 13 Sur 23 Sudoeste 0 -- -- 71
2019-04-13 11:00:00 15.1 9 Sur 14 Sur 0 -- -- 73
2019-04-13 10:00:00 15.3 5 Sudeste 8 Sudeste 0 -- -- 68
2019-04-13 09:00:00 12.8 4 Nordeste 6 Este 0 -- -- 73
2019-04-13 08:00:00 10.4 2 Norte 5 Noroeste 0 -- -- 87
2019-04-13 07:00:00 10.1 0 Calma 4 Norte 0 -- -- 86
2019-04-13 06:00:00 10.5 0 Calma 5 Noroeste 0 -- -- 83
2019-04-13 05:00:00 11 0 Calma 4 Sur 0 -- -- 81
2019-04-13 04:00:00 10.9 0 Calma 9 Norte 0 -- -- 81
2019-04-13 03:00:00 11.1 3 Nordeste 7 Norte 0 -- -- 80
2019-04-13 02:00:00 12.1 3 Norte 7 Noroeste 0 -- -- 73
2019-04-13 01:00:00 12.2 3 Norte 8 Norte 0 -- -- 70
2019-04-13 00:00:00 12.7 3 Norte 6 Norte 0 -- -- 67
2019-04-12 23:00:00 13.2 3 Norte 6 Noroeste 0 -- -- 66
2019-04-12 22:00:00 14.7 0 Calma 12 Sur 0 -- -- 64
2019-04-12 21:00:00 15.1 8 Sur 16 Sur 0 -- -- 63
2019-04-12 20:00:00 15.6 9 Sudoeste 21 Sur 0 -- -- 60
2019-04-12 19:00:00 16.1 14 Sur 23 Sur 0 -- -- 58
2019-04-12 18:00:00 16.6 11 Sur 22 Sur 0 -- -- 57
2019-04-12 17:00:00 17.2 12 Sur 23 Sudoeste 0 -- -- 56
2019-04-12 16:00:00 17 14 Sur 26 Sudoeste 0 -- -- 54
2019-04-12 15:00:00 18.1 14 Sur 27 Sur 0 -- -- 51
2019-04-12 14:00:00 18 13 Sur 24 Sur 0 -- -- 54
2019-04-12 13:00:00 18.8 7 Sudoeste 17 Sudoeste 0 -- -- 47
2019-04-12 12:00:00 17.6 8 Sur 13 Sur 0 -- -- 49
2019-04-12 11:00:00 17.2 6 Sur 12 Sur 0 -- -- 51
2019-04-12 10:00:00 16.8 0 Calma 7 Nordeste 0 -- -- 58
2019-04-12 09:00:00 15 2 Norte 6 Norte 0 -- -- 65
2019-04-12 08:00:00 14.6 0 Calma 8 Noroeste 0 -- -- 64
2019-04-12 07:00:00 14.4 0 Calma 8 Oeste 0 -- -- 66
2019-04-12 06:00:00 14.3 0 Calma 4 Sudoeste 0 -- -- 65
2019-04-12 05:00:00 14.8 2 Oeste 11 Norte 0 -- -- 63
2019-04-12 04:00:00 15 5 Noroeste 15 Noroeste 0 -- -- 61
2019-04-12 03:00:00 14.7 4 Sudoeste 9 Sudoeste 0 -- -- 67
2019-04-12 02:00:00 14.7 3 Sudoeste 17 Oeste 0 -- -- 67
2019-04-12 01:00:00 14.9 4 Oeste 12 Sudoeste 0 -- -- 60
2019-04-12 00:00:00 15.3 2 Este 17 Sudoeste 0 -- -- 52
2019-04-11 23:00:00 15.5 3 Oeste 12 Oeste 0 -- -- 47
2019-04-11 22:00:00 15.7 0 Calma 17 Noroeste 0 -- -- 47
2019-04-11 21:00:00 15.7 5 Este 12 Oeste 0 -- -- 51
2019-04-11 20:00:00 16.9 7 Oeste 20 Sudoeste 0 -- -- 45
2019-04-11 19:00:00 17.2 8 Sudoeste 21 Oeste 0 -- -- 42
2019-04-11 18:00:00 18.7 6 Oeste 28 Norte 0 -- -- 34
2019-04-11 17:00:00 18.5 12 Noroeste 26 Norte 0 -- -- 36
2019-04-11 16:00:00 19.9 3 Norte 26 Norte 0 -- -- 38
2019-04-11 15:00:00 19 6 Noroeste 27 Noroeste 0 -- -- 39
2019-04-11 14:00:00 19.5 5 Sudeste 25 Este 0 -- -- 45
2019-04-11 13:00:00 18 10 Nordeste 20 Nordeste 0 -- -- 47
2019-04-11 12:00:00 17.3 2 Sudeste 10 Sur 0 -- -- 51
2019-04-11 11:00:00 17.5 4 Sur 10 Este 0 -- -- 55
2019-04-11 10:00:00 16.4 0 Calma 13 Noroeste 0 -- -- 57
2019-04-11 09:00:00 15 4 Norte 23 Norte 0 -- -- 61
2019-04-11 08:00:00 14.2 8 Norte 21 Norte 0 -- -- 62
2019-04-11 07:00:00 13.8 3 Nordeste 10 Noroeste 0 -- -- 63
2019-04-11 06:00:00 12.2 0 Calma 9 Nordeste 0 -- -- 64
2019-04-11 05:00:00 12.1 0 Calma 6 Norte 0 -- -- 68
2019-04-11 04:00:00 12.3 0 Calma 5 Norte 0 -- -- 62
2019-04-11 03:00:00 12.6 2 Norte 6 Norte 0 -- -- 60
2019-04-11 02:00:00 13.8 0 Calma 9 Noroeste 0 -- -- 53
2019-04-11 01:00:00 13.5 0 Calma 8 Noroeste 0 -- -- 54
2019-04-11 00:00:00 13.3 0 Calma 7 Sudoeste 0 -- -- 57
2019-04-10 23:00:00 13.6 0 Calma 5 Sudoeste 0 -- -- 56
2019-04-10 22:00:00 14.4 0 Calma 8 Noroeste 0 -- -- 50
2019-04-10 21:00:00 15 3 Noroeste 12 Noroeste 0 -- -- 47
2019-04-10 20:00:00 16.2 3 Noroeste 16 Noroeste 0 -- -- 44
2019-04-10 19:00:00 17.1 7 Noroeste 22 Noroeste 0 -- -- 42
2019-04-10 18:00:00 17.7 9 Noroeste 20 Oeste 0 -- -- 39
2019-04-10 17:00:00 18.5 8 Noroeste 24 Noroeste 0 -- -- 38
2019-04-10 16:00:00 18.1 6 Noroeste 23 Noroeste 0 -- -- 41
2019-04-10 15:00:00 18.6 4 Oeste 23 Noroeste 0 -- -- 41
2019-04-10 14:00:00 17.5 11 Noroeste 27 Noroeste 0 -- -- 44
2019-04-10 13:00:00 16.6 7 Noroeste 19 Noroeste 0 -- -- 49
2019-04-10 12:00:00 15.2 5 Norte 13 Sur 0 -- -- 60
2019-04-10 11:00:00 14.9 6 Sudeste 10 Sudeste 0.1 -- -- 68
2019-04-10 10:00:00 13.1 0 Calma 9 Nordeste 0 -- -- 76
2019-04-10 09:00:00 12.5 5 Nordeste 11 Nordeste 0 -- -- 79
2019-04-10 08:00:00 11.6 0 Calma 22 Noroeste 0.7 -- -- 80
2019-04-10 07:00:00 11.6 13 Noroeste 28 Noroeste 1.2 -- -- 72
2019-04-10 06:00:00 14 13 Noroeste 33 Noroeste 0 -- -- 54
2019-04-10 05:00:00 14 4 Nordeste 11 Nordeste 0 -- -- 66
2019-04-10 04:00:00 14.1 4 Nordeste 16 Sudeste 0 -- -- 64
2019-04-10 03:00:00 14.3 6 Sudoeste 23 Oeste 0 -- -- 63
2019-04-10 02:00:00 14.8 5 Sudoeste 26 Oeste 0 -- -- 61
2019-04-10 01:00:00 14.9 5 Sudoeste 28 Sudoeste 0 -- -- 60
2019-04-10 00:00:00 15.1 8 Oeste 31 Sudoeste 0 -- -- 59
2019-04-09 23:00:00 15.2 9 Oeste 30 Oeste 0 -- -- 60
2019-04-09 22:00:00 15.3 5 Oeste 18 Sudoeste 0 -- -- 66
2019-04-09 21:00:00 15.5 6 Sudoeste 17 Sudoeste 0 -- -- 50
2019-04-09 20:00:00 16.4 6 Sudoeste 23 Sudoeste 0 -- -- 47
2019-04-09 19:00:00 17.5 8 Sudoeste 24 Sudoeste 0 -- -- 40
2019-04-09 18:00:00 17.8 6 Oeste 31 Sudoeste 0 -- -- 41
2019-04-09 17:00:00 18.3 10 Oeste 30 Oeste 0 -- -- 44
2019-04-09 16:00:00 19.1 10 Oeste 31 Oeste 0 -- -- 41
2019-04-09 15:00:00 17.8 11 Oeste 35 Oeste 0 -- -- 41
2019-04-09 14:00:00 17.6 12 Noroeste 30 Norte 0 -- -- 47
2019-04-09 13:00:00 17.6 9 Noroeste 33 Norte 0 -- -- 50
2019-04-09 12:00:00 18.3 12 Noroeste 36 Oeste 0 -- -- 51
2019-04-09 11:00:00 18.8 10 Noroeste 23 Norte 0 -- -- 45
2019-04-09 10:00:00 17.6 6 Noroeste 28 Noroeste 0 -- -- 55
2019-04-09 09:00:00 16.6 7 Sudoeste 22 Sudoeste 0 -- -- 67
2019-04-09 08:00:00 14.3 6 Sudoeste 17 Sudoeste 0.1 -- -- 85
2019-04-09 07:00:00 13.8 0 Calma 9 Sur 0 -- -- 91
2019-04-09 06:00:00 13.6 4 Sudoeste 6 Sur 0 -- -- 88
2019-04-09 05:00:00 13.5 0 Calma 7 Noroeste 0 -- -- 84
2019-04-09 04:00:00 13.1 0 Calma 5 Nordeste 0 -- -- 84
2019-04-09 03:00:00 13.1 2 Norte 6 Norte 0 -- -- 83
2019-04-09 02:00:00 13.7 0 Calma 7 Noroeste 0 -- -- 77
2019-04-09 01:00:00 14.5 0 Calma 7 Norte 0 -- -- 72
2019-04-09 00:00:00 14.3 3 Norte 5 Norte 0 -- -- 77
2019-04-08 23:00:00 14.7 0 Calma 5 Oeste 0 -- -- 77
2019-04-08 22:00:00 15.6 2 Sudeste 14 Sudoeste 0 -- -- 72
2019-04-08 21:00:00 15.9 7 Sudoeste 19 Sudoeste 0 -- -- 72
2019-04-08 20:00:00 17 6 Sudoeste 19 Sudoeste 0 -- -- 60
2019-04-08 19:00:00 17.9 8 Sudoeste 22 Sudoeste 0 -- -- 57
2019-04-08 18:00:00 18.5 10 Sudoeste 30 Sudoeste 0 -- -- 55
2019-04-08 17:00:00 19 10 Sudoeste 26 Sudoeste 0 -- -- 54
2019-04-08 16:00:00 18.9 8 Sudoeste 30 Sudoeste 0 -- -- 55
2019-04-08 15:00:00 18.5 12 Sudoeste 31 Sudoeste 0 -- -- 52
2019-04-08 14:00:00 18.5 12 Sudoeste 29 Sudoeste 0 -- -- 55
2019-04-08 13:00:00 18.1 11 Sudoeste 30 Sudoeste 0 -- -- 54
2019-04-08 12:00:00 17.3 6 Sudoeste 19 Sudoeste 0 -- -- 60
2019-04-08 11:00:00 15.5 4 Sur 11 Sur 0 -- -- 70
2019-04-08 10:00:00 15.3 4 Este 7 Este 0 -- -- 58
2019-04-08 09:00:00 12.9 4 Nordeste 7 Nordeste 0 -- -- 66
2019-04-08 08:00:00 10.8 3 Norte 5 Nordeste 0 -- -- 77
2019-04-08 07:00:00 10.3 3 Norte 6 Nordeste 0 -- -- 77
2019-04-08 06:00:00 9.7 3 Norte 6 Norte 0 -- -- 77
2019-04-08 05:00:00 9 4 Norte 6 Nordeste 0 -- -- 80
2019-04-08 04:00:00 9.2 4 Norte 7 Norte 0 -- -- 79
2019-04-08 03:00:00 9.3 4 Norte 5 Norte 0 -- -- 79
2019-04-08 02:00:00 9.8 2 Norte 7 Noroeste 0 -- -- 75
2019-04-08 01:00:00 10.2 3 Norte 8 Nordeste 0 -- -- 72
2019-04-08 00:00:00 10.7 4 Nordeste 8 Nordeste 0 -- -- 68
2019-04-07 23:00:00 12.1 3 Noroeste 9 Oeste 0 -- -- 59
2019-04-07 22:00:00 13.1 3 Oeste 12 Oeste 0 -- -- 53
2019-04-07 21:00:00 13.9 5 Oeste 11 Oeste 0 -- -- 50
2019-04-07 20:00:00 14.7 6 Noroeste 16 Oeste 0 -- -- 48
2019-04-07 19:00:00 15.4 3 Noroeste 28 Nordeste 0 -- -- 47
2019-04-07 18:00:00 15.3 6 Noroeste 32 Norte 0 -- -- 48
2019-04-07 17:00:00 15.7 8 Norte 32 Noroeste 0 -- -- 47
2019-04-07 16:00:00 15.7 14 Noroeste 32 Noroeste 0 -- -- 44
2019-04-07 15:00:00 16.4 12 Noroeste 32 Noroeste 0 -- -- 45
2019-04-07 14:00:00 15.5 14 Noroeste 33 Noroeste 0 -- -- 49
2019-04-07 13:00:00 15.4 11 Noroeste 30 Noroeste 0 -- -- 49
2019-04-07 12:00:00 14.7 12 Noroeste 26 Noroeste 0 -- -- 52
2019-04-07 11:00:00 12.8 3 Oeste 13 Sudoeste 0 -- -- 69
2019-04-07 10:00:00 11.8 6 Sudoeste 18 Noroeste 0.1 -- -- 68
2019-04-07 09:00:00 11.7 4 Noroeste 20 Oeste 0 -- -- 66
2019-04-07 08:00:00 10.3 2 Noroeste 18 Noroeste 6.7 -- -- 76
2019-04-07 07:00:00 10.6 9 Noroeste 21 Noroeste 0.4 -- -- 68
2019-04-07 06:00:00 12.3 2 Sudoeste 14 Oeste 0 -- -- 65
2019-04-07 05:00:00 12.7 6 Oeste 22 Oeste 0 -- -- 62
2019-04-07 04:00:00 13.3 8 Oeste 25 Oeste 0 -- -- 59
2019-04-07 03:00:00 13.4 6 Oeste 22 Oeste 0 -- -- 60
2019-04-07 02:00:00 13.5 4 Oeste 15 Oeste 0 -- -- 65
2019-04-07 01:00:00 13.3 3 Oeste 14 Oeste 0 -- -- 63
2019-04-07 00:00:00 13.6 8 Oeste 22 Oeste 0 -- -- 61
2019-04-06 23:00:00 12.7 3 Sudoeste 8 Oeste 0 -- -- 61
2019-04-06 22:00:00 13.3 3 Noroeste 14 Sudoeste 0 -- -- 57
2019-04-06 21:00:00 14.1 3 Sudoeste 19 Sudoeste 0 -- -- 57
2019-04-06 20:00:00 14.8 6 Sudoeste 31 Sudoeste 0 -- -- 54
2019-04-06 19:00:00 14.8 10 Sudoeste 36 Sudoeste 0 -- -- 52
2019-04-06 18:00:00 15.3 9 Sudoeste 37 Sur 0 -- -- 48
2019-04-06 17:00:00 15.5 13 Sudoeste 47 Sudoeste 0 -- -- 46
2019-04-06 16:00:00 15.4 12 Oeste 40 Sudoeste 0 -- -- 46
2019-04-06 15:00:00 15.5 15 Sudoeste 42 Oeste 0 -- -- 46
2019-04-06 14:00:00 15.9 11 Sudoeste 36 Sudoeste 0 -- -- 49
2019-04-06 13:00:00 15.8 10 Sudoeste 38 Oeste 0 -- -- 51
2019-04-06 12:00:00 14.6 8 Sudoeste 30 Oeste 0 -- -- 52
2019-04-06 11:00:00 14.5 12 Sudoeste 32 Oeste 0 -- -- 51
2019-04-06 10:00:00 14.2 8 Oeste 34 Oeste 0 -- -- 54
2019-04-06 09:00:00 13.5 10 Oeste 35 Oeste 0 -- -- 57
2019-04-06 08:00:00 12.5 8 Oeste 42 Sudoeste 0 -- -- 60
2019-04-06 07:00:00 12.3 5 Sudoeste 26 Oeste 0 -- -- 60
2019-04-06 06:00:00 12 8 Oeste 29 Noroeste 0.1 -- -- 62
2019-04-06 05:00:00 10.4 3 Sudoeste 13 Sur 0 -- -- 80
2019-04-06 04:00:00 10.3 2 Oeste 16 Oeste 0 -- -- 80
2019-04-06 03:00:00 10.2 6 Noroeste 37 Oeste 3 -- -- 79
2019-04-06 02:00:00 13 2 Oeste 15 Sudoeste 0 -- -- 77
2019-04-06 01:00:00 13.1 3 Sudoeste 17 Sudoeste 0 -- -- 75
2019-04-06 00:00:00 13.7 6 Sudoeste 16 Sudoeste 0 -- -- 71
2019-04-05 23:00:00 14 3 Oeste 31 Sudoeste 0 -- -- 74
2019-04-05 22:00:00 15 17 Sudoeste 32 Sudoeste 0.5 -- -- 77
2019-04-05 21:00:00 14.6 10 Sudoeste 38 Sudoeste 1.8 -- -- 80
2019-04-05 20:00:00 15.1 20 Sur 36 Sudoeste 0 -- -- 72
2019-04-05 19:00:00 15.3 15 Sur 31 Sur 0 -- -- 75
2019-04-05 18:00:00 15.5 16 Sur 33 Sudoeste 1.8 -- -- 70
2019-04-05 17:00:00 15.1 18 Sur 33 Sur 0 -- -- 77
2019-04-05 16:00:00 15.3 19 Sur 30 Sur 0 -- -- 69
2019-04-05 15:00:00 15.6 14 Sur 26 Sur 0 -- -- 65
2019-04-05 14:00:00 15.8 12 Sur 22 Sur 0 -- -- 60
2019-04-05 13:00:00 16.9 12 Sur 21 Sur 0 -- -- 53
2019-04-05 12:00:00 15.7 5 Sudeste 11 Sudeste 0 -- -- 52
2019-04-05 11:00:00 16.1 4 Este 9 Este 0 -- -- 49
2019-04-05 10:00:00 13.7 5 Este 10 Nordeste 0 -- -- 53
2019-04-05 09:00:00 11 4 Nordeste 6 Nordeste 0 -- -- 64
2019-04-05 08:00:00 7.9 4 Nordeste 8 Norte 0 -- -- 73
2019-04-05 07:00:00 7.5 4 Norte 6 Nordeste 0 -- -- 76
2019-04-05 06:00:00 7.5 4 Norte 7 Norte 0 -- -- 73
2019-04-05 05:00:00 7.8 0 Calma 5 Noroeste 0 -- -- 75
2019-04-05 04:00:00 8.9 3 Nordeste 9 Noroeste 0 -- -- 70
2019-04-05 03:00:00 9.5 0 Calma 10 Noroeste 0 -- -- 65
2019-04-05 02:00:00 10.1 4 Noroeste 9 Noroeste 0 -- -- 60
2019-04-05 01:00:00 10.4 4 Noroeste 10 Norte 0 -- -- 54
2019-04-05 00:00:00 10.3 6 Norte 14 Noroeste 0 -- -- 47
2019-04-04 23:00:00 10.2 4 Norte 11 Norte 0 -- -- 43
2019-04-04 22:00:00 10.9 3 Nordeste 10 Noroeste 0 -- -- 41
2019-04-04 21:00:00 12.1 5 Noroeste 13 Noroeste 0 -- -- 39
2019-04-04 20:00:00 13.3 8 Norte 18 Este 0 -- -- 37
2019-04-04 19:00:00 14.2 11 Nordeste 27 Nordeste 0 -- -- 34
2019-04-04 18:00:00 14.7 11 Norte 26 Nordeste 0 -- -- 31
2019-04-04 17:00:00 16.3 4 Noroeste 20 Oeste 0 -- -- 33
2019-04-04 16:00:00 15.2 11 Noroeste 24 Noroeste 0 -- -- 33
2019-04-04 15:00:00 14.7 8 Norte 31 Nordeste 0 -- -- 37
2019-04-04 14:00:00 14.3 13 Norte 33 Norte 0 -- -- 39
2019-04-04 13:00:00 14.1 15 Norte 39 Norte 0 -- -- 41
2019-04-04 12:00:00 14.4 10 Noroeste 44 Norte 0 -- -- 42
2019-04-04 11:00:00 14 8 Noroeste 27 Norte 0 -- -- 41
2019-04-04 10:00:00 12.1 11 Noroeste 34 Norte 0 -- -- 44
2019-04-04 09:00:00 12 6 Noroeste 19 Noroeste 0 -- -- 49
2019-04-04 08:00:00 11.9 3 Noroeste 21 Noroeste 0 -- -- 53
2019-04-04 07:00:00 12.1 5 Noroeste 14 Noroeste 0 -- -- 51
2019-04-04 06:00:00 12.2 4 Nordeste 23 Noroeste 0 -- -- 52
2019-04-04 05:00:00 12.5 7 Norte 25 Nordeste 0 -- -- 51
2019-04-04 04:00:00 13 10 Norte 33 Norte 0 -- -- 46
2019-04-04 03:00:00 12.9 14 Norte 28 Norte 0 -- -- 53
2019-04-04 02:00:00 13 11 Norte 31 Norte 0 -- -- 63
2019-04-04 01:00:00 12.6 16 Norte 42 Norte 0 -- -- 70
2019-04-04 00:00:00 12.9 19 Norte 40 Norte 0 -- -- 70
2019-04-03 23:00:00 13.4 18 Norte 39 Norte 0 -- -- 72
2019-04-03 22:00:00 15.3 3 Norte 13 Norte 0 -- -- 85
2019-04-03 21:00:00 15.6 3 Sur 7 Sudeste 0 -- -- 87
2019-04-03 20:00:00 15.5 7 Sur 13 Sur 0 -- -- 86
2019-04-03 19:00:00 15.8 8 Sur 13 Sur 0 -- -- 84
2019-04-03 18:00:00 16.3 9 Sur 20 Sudoeste 0 -- -- 80
2019-04-03 17:00:00 16.6 9 Sur 20 Sudoeste 0 -- -- 79
2019-04-03 16:00:00 16.6 12 Sur 24 Sur 0 -- -- 78
2019-04-03 15:00:00 17.8 10 Sur 23 Sudoeste 0 -- -- 75
2019-04-03 14:00:00 17.1 12 Sur 22 Sur 0 -- -- 76
2019-04-03 13:00:00 17.2 10 Sur 18 Sur 0 -- -- 79
2019-04-03 12:00:00 16.3 9 Sur 15 Sur 0 -- -- 78
2019-04-03 11:00:00 15.9 8 Sur 19 Sur 0 -- -- 76
2019-04-03 10:00:00 15.3 9 Sur 21 Sur 0 -- -- 78
2019-04-03 09:00:00 15.1 7 Sur 19 Sudoeste 0 -- -- 84
2019-04-03 08:00:00 15.1 9 Sudoeste 15 Sudoeste 0 -- -- 84
2019-04-03 07:00:00 15 10 Sudoeste 17 Sudoeste 0 -- -- 87
2019-04-03 06:00:00 15 6 Sur 13 Sur 0 -- -- 84
2019-04-03 05:00:00 14.9 4 Sur 13 Sudoeste 0 -- -- 84
2019-04-03 04:00:00 14.9 6 Sur 13 Sudoeste 0 -- -- 85
2019-04-03 03:00:00 15 5 Sudoeste 13 Oeste 0 -- -- 85
2019-04-03 02:00:00 15.1 3 Sudoeste 10 Sudoeste 0 -- -- 86
2019-04-03 01:00:00 15.1 4 Sudoeste 17 Sur 0 -- -- 87
2019-04-03 00:00:00 15.2 8 Sur 15 Sur 0 -- -- 87
2019-04-02 23:00:00 15.2 9 Sur 15 Sur 0 -- -- 86
2019-04-02 22:00:00 15.3 4 Sudoeste 11 Sudoeste 0 -- -- 85
2019-04-02 21:00:00 15 5 Sudoeste 15 Sur 0 -- -- 85
2019-04-02 20:00:00 15.5 7 Sur 17 Sudoeste 0 -- -- 82
2019-04-02 19:00:00 15.7 8 Sur 19 Sudoeste 0 -- -- 81
2019-04-02 18:00:00 16.1 13 Sur 23 Sudoeste 0 -- -- 77
2019-04-02 17:00:00 16.8 13 Sur 24 Sudoeste 0 -- -- 72
2019-04-02 16:00:00 17 12 Sur 26 Sudoeste 0 -- -- 70
2019-04-02 15:00:00 17.2 13 Sur 27 Sudoeste 0 -- -- 70
2019-04-02 14:00:00 17.2 12 Sur 23 Sur 0 -- -- 69
2019-04-02 13:00:00 16.8 12 Sur 23 Sur 0 -- -- 71
2019-04-02 12:00:00 16.6 12 Sur 23 Sur 0 -- -- 67
2019-04-02 11:00:00 15.7 9 Sur 15 Sur 0 -- -- 72
2019-04-02 10:00:00 14.4 3 Sudeste 7 Nordeste 0 -- -- 69
2019-04-02 09:00:00 12.3 3 Nordeste 6 Este 0 -- -- 77
2019-04-02 08:00:00 10.5 3 Norte 5 Norte 0 -- -- 89
2019-04-02 07:00:00 10.1 0 Calma 2 Norte 0 -- -- 90
2019-04-02 06:00:00 10 0 Calma 5 Noroeste 0 -- -- 88
2019-04-02 05:00:00 10.5 0 Calma 4 Noroeste 0 -- -- 87
2019-04-02 04:00:00 11.2 0 Calma 5 Noroeste 0 -- -- 82
2019-04-02 03:00:00 11.5 0 Calma 0 Calma 0 -- -- 80
2019-04-02 02:00:00 12.1 0 Calma 6 Nordeste 0 -- -- 79
2019-04-02 01:00:00 13.2 0 Calma 9 Noroeste 0 -- -- 77
2019-04-02 00:00:00 13.7 5 Noroeste 10 Noroeste 0 -- -- 76
2019-04-01 23:00:00 13.9 6 Noroeste 13 Noroeste 0 -- -- 76
2019-04-01 22:00:00 14.1 6 Noroeste 10 Norte 0 -- -- 75
2019-04-01 21:00:00 14.5 5 Noroeste 10 Sur 0 -- -- 73
2019-04-01 20:00:00 15 7 Sur 22 Sur 0 -- -- 75
2019-04-01 19:00:00 15 13 Sur 23 Sur 0 -- -- 74
2019-04-01 18:00:00 15.8 13 Sur 19 Sur 0 -- -- 71
2019-04-01 17:00:00 17.6 9 Sur 16 Sur 0 -- -- 50
2019-04-01 16:00:00 18.2 9 Sudoeste 16 Sudoeste 0 -- -- 48
2019-04-01 15:00:00 18.4 3 Sur 10 Nordeste 0 -- -- 51
2019-04-01 14:00:00 17.4 5 Sudeste 12 Este 0 -- -- 53
2019-04-01 13:00:00 17.2 8 Este 16 Este 0 -- -- 52
2019-04-01 12:00:00 16.6 7 Este 19 Nordeste 0 -- -- 51
2019-04-01 11:00:00 15.7 6 Nordeste 14 Este 0 -- -- 57
2019-04-01 10:00:00 14.5 6 Norte 16 Norte 0 -- -- 70
2019-04-01 09:00:00 14.2 8 Norte 16 Norte 0 -- -- 73
2019-04-01 08:00:00 13.8 11 Norte 20 Norte 0 -- -- 76
2019-04-01 07:00:00 13.6 10 Nordeste 17 Norte 0 -- -- 78
2019-04-01 06:00:00 13.6 10 Norte 22 Nordeste 0.1 -- -- 81
2019-04-01 05:00:00 13.7 9 Nordeste 18 Nordeste 0 -- -- 80
2019-04-01 04:00:00 13.8 10 Norte 18 Norte 0 -- -- 74
2019-04-01 03:00:00 13.8 8 Norte 19 Norte 0 -- -- 76
2019-04-01 02:00:00 13.7 8 Norte 21 Norte 0 -- -- 83
2019-04-01 01:00:00 13.8 12 Norte 21 Nordeste 0.2 -- -- 86
2019-04-01 00:00:00 13.9 9 Nordeste 19 Nordeste 0.3 -- -- 90
2019-03-31 23:00:00 14.2 8 Este 21 Nordeste 0.1 -- -- 89
2019-03-31 22:00:00 14.6 12 Nordeste 24 Norte 0.1 -- -- 85
2019-03-31 21:00:00 14.7 16 Norte 27 Nordeste 0 -- -- 87
2019-03-31 20:00:00 15.1 11 Nordeste 18 Nordeste 0 -- -- 84
2019-03-31 19:00:00 15.7 12 Nordeste 24 Nordeste 0 -- -- 80
2019-03-31 18:00:00 16.3 15 Nordeste 26 Nordeste 0 -- -- 76
2019-03-31 17:00:00 16.7 13 Nordeste 25 Nordeste 0 -- -- 73
2019-03-31 16:00:00 16.6 12 Nordeste 23 Nordeste 0 -- -- 73
2019-03-31 15:00:00 16.7 12 Este 24 Nordeste 0.1 -- -- 73
2019-03-31 14:00:00 17.3 11 Este 24 Este 0.5 -- -- 71
2019-03-31 13:00:00 18 13 Este 25 Este 0 -- -- 63
2019-03-31 12:00:00 17.7 12 Nordeste 26 Este 0 -- -- 64
2019-03-31 11:00:00 16.9 14 Nordeste 26 Nordeste 0 -- -- 65
2019-03-31 10:00:00 15.7 11 Nordeste 21 Nordeste 0 -- -- 69
2019-03-31 09:00:00 14 10 Norte 18 Norte 0 -- -- 77
2019-03-31 08:00:00 12.8 8 Norte 17 Norte 0 -- -- 83
2019-03-31 07:00:00 12.3 6 Norte 17 Norte 0 -- -- 80
2019-03-31 06:00:00 12.6 8 Norte 18 Norte 0 -- -- 78
2019-03-31 05:00:00 12.7 6 Norte 17 Norte 0 -- -- 78
2019-03-31 03:00:00 13.2 9 Norte 18 Norte 0 -- -- 77
2019-03-31 01:00:00 13.1 6 Norte 16 Noroeste 0 -- -- 77
2019-03-31 00:00:00 13.5 7 Norte 15 Nordeste 0 -- -- 76
2019-03-30 23:00:00 14 9 Nordeste 22 Nordeste 0 -- -- 76
2019-03-30 22:00:00 14.4 10 Nordeste 21 Este 0 -- -- 75
2019-03-30 21:00:00 14.8 9 Nordeste 18 Nordeste 0 -- -- 71
2019-03-30 20:00:00 14.8 9 Nordeste 21 Nordeste 0 -- -- 69
2019-03-30 19:00:00 15.6 12 Este 22 Este 0 -- -- 67
2019-03-30 18:00:00 16 5 Oeste 14 Sudoeste 0 -- -- 69
2019-03-30 17:00:00 15.7 8 Sudoeste 21 Sudoeste 0 -- -- 67
2019-03-30 16:00:00 16.6 7 Sudoeste 22 Sudoeste 0 -- -- 64
2019-03-30 15:00:00 16.8 12 Sudoeste 26 Sudoeste 0 -- -- 64
2019-03-30 14:00:00 16.8 10 Sudoeste 26 Sudoeste 0 -- -- 64
2019-03-30 13:00:00 17 11 Sur 21 Sur 0 -- -- 59
2019-03-30 12:00:00 18.1 4 Sudeste 13 Sudeste 0 -- -- 52
2019-03-30 11:00:00 18 7 Este 29 Este 0 -- -- 54
2019-03-30 10:00:00 17 8 Este 17 Este 0 -- -- 57
2019-03-30 09:00:00 14.1 8 Nordeste 13 Norte 0 -- -- 59
2019-03-30 08:00:00 12.5 6 Nordeste 12 Norte 0 -- -- 64
2019-03-30 07:00:00 11.2 5 Norte 12 Norte 0 -- -- 66
2019-03-30 06:00:00 11.7 5 Norte 12 Norte 0 -- -- 66
2019-03-30 05:00:00 12 6 Norte 13 Noroeste 0 -- -- 67
2019-03-30 04:00:00 11.8 5 Norte 16 Noroeste 0 -- -- 70
2019-03-30 03:00:00 11.3 6 Norte 12 Norte 0 -- -- 73
2019-03-30 02:00:00 11.3 3 Norte 7 Norte 0 -- -- 72
2019-03-30 01:00:00 11.5 4 Norte 12 Norte 0 -- -- 70
2019-03-30 00:00:00 11.3 5 Norte 11 Norte 0 -- -- 70
2019-03-29 23:00:00 11.3 0 Calma 9 Este 0 -- -- 70
2019-03-29 22:00:00 12.3 4 Este 13 Nordeste 0 -- -- 67
2019-03-29 21:00:00 12.6 3 Norte 9 Nordeste 0 -- -- 67
2019-03-29 20:00:00 13.6 0 Calma 8 Sudoeste 0 -- -- 63
2019-03-29 19:00:00 14 6 Sudoeste 14 Sur 0 -- -- 61
2019-03-29 18:00:00 14.6 7 Sudoeste 18 Sur 0 -- -- 61
2019-03-29 17:00:00 14.8 11 Sudoeste 21 Sur 0 -- -- 61
2019-03-29 16:00:00 15.5 13 Sur 23 Sur 0 -- -- 59
2019-03-29 15:00:00 16 11 Sur 24 Sur 0 -- -- 58
2019-03-29 14:00:00 16.1 13 Sur 27 Sur 0 -- -- 62
2019-03-29 13:00:00 18.6 10 Este 21 Norte 0 -- -- 39
2019-03-29 12:00:00 18 11 Este 23 Nordeste 0 -- -- 44
2019-03-29 11:00:00 17.9 11 Nordeste 20 Nordeste 0 -- -- 41
2019-03-29 10:00:00 16.3 5 Este 10 Nordeste 0 -- -- 50
2019-03-29 09:00:00 13.6 5 Nordeste 10 Nordeste 0 -- -- 64
2019-03-29 08:00:00 11.5 6 Nordeste 9 Nordeste 0 -- -- 76
2019-03-29 07:00:00 8.6 3 Norte 6 Norte 0 -- -- 82
2019-03-29 06:00:00 8.3 4 Norte 7 Noroeste 0 -- -- 78
2019-03-29 05:00:00 9 3 Nordeste 7 Noroeste 0 -- -- 71
2019-03-29 04:00:00 8.9 3 Norte 6 Nordeste 0 -- -- 73
2019-03-29 03:00:00 9.2 3 Nordeste 8 Norte 0 -- -- 77
2019-03-29 02:00:00 9.6 6 Norte 10 Norte 0 -- -- 79
2019-03-29 01:00:00 10.8 0 Calma 5 Norte 0 -- -- 77
2019-03-29 00:00:00 12 3 Noroeste 10 Noroeste 0 -- -- 71
2019-03-28 23:00:00 12.7 5 Noroeste 9 Noroeste 0 -- -- 64
2019-03-28 22:00:00 12.8 4 Norte 9 Norte 0 -- -- 67
2019-03-28 21:00:00 13.9 0 Calma 9 Sur 0 -- -- 66
2019-03-28 20:00:00 14.3 5 Sudoeste 13 Sur 0 -- -- 63
2019-03-28 19:00:00 14.5 6 Sur 16 Sur 0 -- -- 60
2019-03-28 18:00:00 15.1 10 Sur 22 Sur 0 -- -- 59
2019-03-28 17:00:00 15.6 11 Sudoeste 25 Este 0 -- -- 57
2019-03-28 16:00:00 17.7 10 Este 26 Este 0 -- -- 41
2019-03-28 15:00:00 19 14 Este 32 Este 0 -- -- 41
2019-03-28 14:00:00 19.4 14 Este 31 Este 0 -- -- 40
2019-03-28 13:00:00 19.6 13 Nordeste 27 Nordeste 0 -- -- 39
2019-03-28 12:00:00 18.7 16 Este 31 Nordeste 0 -- -- 40
2019-03-28 11:00:00 17.8 12 Nordeste 23 Nordeste 0 -- -- 40
2019-03-28 10:00:00 16.3 9 Nordeste 20 Este 0 -- -- 41
2019-03-28 09:00:00 13.9 7 Nordeste 13 Este 0 -- -- 55
2019-03-28 08:00:00 12.4 0 Calma 5 Este 0 -- -- 62
2019-03-28 07:00:00 9.1 0 Calma 4 Oeste 0 -- -- 67
2019-03-28 06:00:00 9.1 2 Norte 5 Este 0 -- -- 61
2019-03-28 05:00:00 9.4 2 Norte 10 Norte 0 -- -- 57
2019-03-28 04:00:00 9.4 3 Norte 6 Noroeste 0 -- -- 57
2019-03-28 03:00:00 11 0 Calma 12 Nordeste 0 -- -- 52
2019-03-28 02:00:00 12.1 6 Nordeste 21 Norte 0 -- -- 45
2019-03-28 01:00:00 12.5 9 Noroeste 16 Noroeste 0 -- -- 42
2019-03-28 00:00:00 10 4 Norte 6 Noroeste 0 -- -- 51
2019-03-27 23:00:00 10.7 0 Calma 6 Noroeste 0 -- -- 53
2019-03-27 22:00:00 11.3 0 Calma 12 Noroeste 0 -- -- 55
2019-03-27 21:00:00 12.1 6 Noroeste 25 Nordeste 0 -- -- 55
2019-03-27 20:00:00 13.4 12 Nordeste 22 Nordeste 0 -- -- 49
2019-03-27 19:00:00 15.1 7 Nordeste 23 Nordeste 0 -- -- 40
2019-03-27 18:00:00 15.9 11 Nordeste 26 Norte 0 -- -- 38
2019-03-27 17:00:00 16.8 15 Nordeste 31 Este 0 -- -- 37
2019-03-27 16:00:00 17.9 15 Este 28 Este 0 -- -- 37
2019-03-27 15:00:00 17.5 15 Nordeste 32 Sudeste 0 -- -- 38
2019-03-27 14:00:00 19.4 14 Este 31 Nordeste 0 -- -- 35
2019-03-27 13:00:00 19.3 12 Este 28 Este 0 -- -- 34
2019-03-27 12:00:00 18.6 14 Nordeste 33 Este 0 -- -- 35
2019-03-27 11:00:00 17.2 14 Nordeste 26 Nordeste 0 -- -- 38
2019-03-27 10:00:00 16.2 7 Este 23 Nordeste 0 -- -- 46
2019-03-27 09:00:00 14.8 12 Norte 24 Norte 0 -- -- 51
2019-03-27 08:00:00 13.6 10 Norte 27 Norte 0 -- -- 52
2019-03-27 07:00:00 12.7 13 Nordeste 34 Nordeste 0 -- -- 54
2019-03-27 06:00:00 13 15 Nordeste 28 Nordeste 0 -- -- 53
2019-03-27 05:00:00 12.3 8 Nordeste 25 Nordeste 0 -- -- 53
2019-03-27 04:00:00 10.9 6 Norte 13 Noroeste 0 -- -- 56
2019-03-27 03:00:00 10.4 3 Noroeste 9 Noroeste 0 -- -- 55
2019-03-27 02:00:00 10.6 3 Norte 9 Nordeste 0 -- -- 55
2019-03-27 01:00:00 9.9 0 Calma 6 Norte 0 -- -- 57
2019-03-27 00:00:00 9.3 3 Norte 8 Nordeste 0 -- -- 60
2019-03-26 23:00:00 10.2 2 Norte 11 Noroeste 0 -- -- 56
2019-03-26 22:00:00 10.7 0 Calma 8 Este 0 -- -- 57
2019-03-26 21:00:00 11.6 5 Este 16 Este 0 -- -- 53
2019-03-26 20:00:00 12.4 10 Nordeste 23 Nordeste 0 -- -- 51
2019-03-26 19:00:00 13.2 12 Nordeste 38 Nordeste 0 -- -- 50
2019-03-26 18:00:00 13.1 21 Este 37 Este 0 -- -- 52
2019-03-26 17:00:00 14.4 20 Este 35 Este 0 -- -- 39
2019-03-26 16:00:00 15.3 17 Nordeste 32 Norte 0 -- -- 31
2019-03-26 15:00:00 16.1 16 Norte 41 Nordeste 0 -- -- 31
2019-03-26 14:00:00 16.2 16 Nordeste 40 Norte 0 -- -- 28
2019-03-26 13:00:00 16.1 20 Nordeste 48 Norte 0 -- -- 24
2019-03-26 12:00:00 16.9 24 Norte 49 Nordeste 0 -- -- 22
2019-03-26 11:00:00 16.4 21 Norte 40 Nordeste 0 -- -- 24
2019-03-26 10:00:00 16.5 14 Nordeste 37 Nordeste 0 -- -- 25
2019-03-26 09:00:00 15.4 12 Nordeste 28 Nordeste 0 -- -- 34
2019-03-26 08:00:00 13.2 8 Nordeste 14 Norte 0 -- -- 61
2019-03-26 07:00:00 10.6 8 Norte 17 Norte 0 -- -- 74
2019-03-26 06:00:00 11.2 7 Norte 18 Norte 0 -- -- 71
2019-03-26 05:00:00 11 5 Norte 12 Nordeste 0 -- -- 73
2019-03-26 04:00:00 11.4 3 Nordeste 18 Noroeste 0 -- -- 76
2019-03-26 03:00:00 12.6 10 Noroeste 16 Noroeste 0 -- -- 69
2019-03-26 02:00:00 11.4 5 Norte 12 Nordeste 0 -- -- 73
2019-03-26 01:00:00 11.4 4 Norte 8 Nordeste 0 -- -- 76
2019-03-26 00:00:00 12 2 Norte 6 Norte 0 -- -- 75
2019-03-25 23:00:00 12.6 3 Norte 5 Norte 0 -- -- 73
2019-03-25 22:00:00 14.5 0 Calma 9 Sudoeste 0 -- -- 70
2019-03-25 21:00:00 15.3 4 Sudoeste 14 Sudoeste 0 -- -- 66
2019-03-25 20:00:00 16.1 8 Sudoeste 15 Sudoeste 0 -- -- 54
2019-03-25 19:00:00 16.9 8 Sudoeste 19 Sudoeste 0 -- -- 47
2019-03-25 18:00:00 17.7 6 Oeste 20 Sudoeste 0 -- -- 47
2019-03-25 17:00:00 18.1 11 Sudoeste 22 Sudoeste 0 -- -- 49
2019-03-25 16:00:00 18.9 12 Sudoeste 22 Sudoeste 0 -- -- 48
2019-03-25 15:00:00 20.3 8 Sudoeste 20 Nordeste 0 -- -- 43
2019-03-25 14:00:00 20.9 12 Este 26 Nordeste 0 -- -- 37
2019-03-25 13:00:00 21.9 12 Este 24 Este 0 -- -- 38
2019-03-25 12:00:00 21.6 13 Este 24 Este 0 -- -- 37
2019-03-25 11:00:00 21.2 12 Este 22 Este 0 -- -- 39
2019-03-25 10:00:00 17.6 0 Calma 8 Este 0 -- -- 48
2019-03-25 09:00:00 16 4 Nordeste 10 Nordeste 0 -- -- 49
2019-03-25 08:00:00 12.3 4 Nordeste 9 Nordeste 0 -- -- 64
2019-03-25 07:00:00 9.3 4 Norte 7 Nordeste 0 -- -- 70
2019-03-25 06:00:00 9.4 3 Norte 14 Norte 0 -- -- 72
2019-03-25 05:00:00 10.3 5 Norte 7 Norte 0 -- -- 72
2019-03-25 04:00:00 9.7 5 Norte 7 Norte 0 -- -- 79
2019-03-25 03:00:00 10.2 0 Calma 4 Norte 0 -- -- 84
2019-03-25 02:00:00 10.9 0 Calma 6 Sudoeste 0 -- -- 79
2019-03-25 01:00:00 11 0 Calma 5 Norte 0 -- -- 72
2019-03-25 00:00:00 11.7 0 Calma 6 Norte 0 -- -- 69